Time;durP1;ratioP1;P1;durP2;ratioP2;P2;SDS_P1;SDS_P2;PMS_P1;PMS_P2;Temp;Humidity;BMP_temperature;BMP_pressure;BME280_temperature;BME280_humidity;BME280_pressure;Samples;Min_cycle;Max_cycle;Signal;HPM_P1;HPM_P2
2022/12/30 00:02:00;;;;;;;3.10;1.10;;;8.90;99.90;;;;;;5008252;28;20190;-68
2022/12/30 00:04:25;;;;;;;4.40;1.00;;;8.80;99.90;;;;;;5025750;28;20262;-68
2022/12/30 00:06:51;;;;;;;2.60;1.57;;;8.80;99.90;;;;;;5025751;28;20277;-69
2022/12/30 00:09:17;;;;;;;3.87;2.03;;;8.80;99.90;;;;;;5025908;28;20228;-68
2022/12/30 00:11:42;;;;;;;2.10;1.20;;;8.80;99.90;;;;;;5024080;28;20173;-68
2022/12/30 00:33:06;;;;;;;4.60;1.30;;;8.80;99.90;;;;;;5022291;28;20884;-68
2022/12/30 00:34:07;;;;;;;8.03;2.23;;;8.90;99.90;;;;;;5019836;28;20440;-68
2022/12/30 00:36:33;;;;;;;2.87;1.40;;;9.00;99.90;;;;;;5014649;28;20426;-68
2022/12/30 00:38:58;;;;;;;1.90;1.60;;;9.00;99.90;;;;;;5029849;28;20566;-68
2022/12/30 00:44:08;;;;;;;3.50;1.33;;;8.90;99.90;;;;;;5024434;28;20927;-68
2022/12/30 00:46:37;;;;;;;4.50;1.30;;;8.90;99.90;;;;;;5030525;28;20467;-69
2022/12/30 00:57:15;;;;;;;4.53;1.10;;;8.80;99.90;;;;;;5029483;28;20590;-69
2022/12/30 00:59:41;;;;;;;5.53;1.20;;;8.70;99.90;;;;;;5028100;28;20506;-68
2022/12/30 01:02:07;;;;;;;3.10;1.00;;;8.80;99.90;;;;;;5024680;28;20658;-68
2022/12/30 01:04:32;;;;;;;1.33;1.10;;;8.70;99.90;;;;;;5029098;28;20197;-68
2022/12/30 01:06:58;;;;;;;2.57;1.30;;;8.60;99.90;;;;;;5023823;28;20707;-68
2022/12/30 01:09:23;;;;;;;3.80;1.83;;;8.60;99.90;;;;;;5008241;28;20613;-68
2022/12/30 01:12:07;;;;;;;2.60;1.47;;;8.50;99.90;;;;;;5028826;28;20184;-69
2022/12/30 01:14:34;;;;;;;4.00;1.47;;;8.60;99.90;;;;;;5028855;28;20179;-69
2022/12/30 01:16:59;;;;;;;6.43;1.87;;;8.60;99.90;;;;;;5028557;28;20502;-69
2022/12/30 01:19:25;;;;;;;2.37;1.70;;;8.50;99.90;;;;;;5028497;28;20449;-70
2022/12/30 01:21:50;;;;;;;2.90;1.70;;;8.40;99.90;;;;;;5028835;28;20713;-69
2022/12/30 01:24:16;;;;;;;1.87;1.27;;;8.40;99.90;;;;;;5028943;28;20172;-69
2022/12/30 01:26:42;;;;;;;2.57;1.67;;;8.40;99.90;;;;;;5022674;28;20201;-69
2022/12/30 01:29:07;;;;;;;1.97;1.30;;;8.30;99.90;;;;;;5028256;28;20668;-67
2022/12/30 01:31:33;;;;;;;1.50;1.30;;;8.20;99.90;;;;;;5028800;28;20177;-68
2022/12/30 01:33:59;;;;;;;2.10;1.40;;;8.20;99.90;;;;;;5025591;28;20205;-71
2022/12/30 01:36:24;;;;;;;6.23;1.83;;;8.30;99.90;;;;;;5028077;28;20247;-68
2022/12/30 01:38:50;;;;;;;3.47;1.60;;;8.10;99.90;;;;;;5028185;28;20432;-69
2022/12/30 01:41:15;;;;;;;1.33;1.23;;;8.30;99.90;;;;;;5028187;28;20179;-69
2022/12/30 01:43:43;;;;;;;6.73;2.43;;;8.20;99.90;;;;;;5028320;28;20184;-69
2022/12/30 01:46:14;;;;;;;2.20;1.40;;;8.20;99.90;;;;;;5027527;28;20215;-69
2022/12/30 01:48:40;;;;;;;1.63;1.50;;;8.20;99.90;;;;;;5028596;28;20474;-68
2022/12/30 01:51:14;;;;;;;2.77;1.20;;;8.20;99.90;;;;;;5028485;28;20425;-68
2022/12/30 01:53:44;;;;;;;5.80;1.57;;;8.10;99.90;;;;;;5028356;28;20196;-69
2022/12/30 01:56:16;;;;;;;2.57;1.40;;;8.20;99.90;;;;;;5027892;28;20543;-68
2022/12/30 01:58:41;;;;;;;4.60;1.20;;;8.10;99.90;;;;;;5028605;28;20801;-69
2022/12/30 02:01:07;;;;;;;3.43;1.40;;;8.20;99.90;;;;;;5022618;28;20414;-68
2022/12/30 02:03:37;;;;;;;17.57;2.80;;;8.20;99.90;;;;;;5027707;28;20180;-70
2022/12/30 02:06:04;;;;;;;3.90;1.20;;;8.10;99.90;;;;;;5023165;28;20713;-69
2022/12/30 02:08:32;;;;;;;1.77;1.33;;;8.20;99.90;;;;;;5027510;28;20504;-68
2022/12/30 02:10:58;;;;;;;2.60;1.60;;;8.10;99.90;;;;;;5027673;28;20431;-69
2022/12/30 02:13:24;;;;;;;2.57;1.60;;;8.00;99.90;;;;;;5027534;28;20779;-68
2022/12/30 02:16:13;;;;;;;3.23;1.83;;;8.00;99.90;;;;;;5027690;28;20529;-69
2022/12/30 02:18:53;;;;;;;3.40;1.33;;;8.00;99.90;;;;;;5018950;28;20203;-69
2022/12/30 02:21:37;;;;;;;2.00;1.70;;;7.90;99.90;;;;;;5023800;28;20408;-68
2022/12/30 02:24:20;;;;;;;2.20;1.10;;;8.10;99.90;;;;;;5026137;28;20786;-68
2022/12/30 02:27:25;;;;;;;3.13;1.20;;;8.00;99.90;;;;;;5018933;28;20446;-69
2022/12/30 02:30:07;;;;;;;5.03;1.37;;;8.10;99.90;;;;;;5011833;28;20434;-68
2022/12/30 02:32:41;;;;;;;5.43;2.00;;;8.20;99.90;;;;;;5026576;28;20446;-68
2022/12/30 02:35:24;;;;;;;2.33;1.43;;;8.20;99.90;;;;;;5024775;28;20782;-69
2022/12/30 02:38:10;;;;;;;2.47;1.57;;;8.20;99.90;;;;;;5026497;28;20408;-68
2022/12/30 02:46:29;;;;;;;4.87;1.60;;;8.20;99.90;;;;;;5026276;28;20435;-68
2022/12/30 02:48:56;;;;;;;1.67;1.20;;;8.10;99.90;;;;;;5025759;28;20489;-68
2022/12/30 02:54:08;;;;;;;1.20;1.10;;;8.10;99.90;;;;;;5026038;28;21012;-69
2022/12/30 02:56:33;;;;;;;6.57;1.70;;;8.10;99.90;;;;;;5025591;28;20485;-69
2022/12/30 03:04:50;;;;;;;1.67;1.10;;;8.10;99.90;;;;;;5023597;28;20406;-69
2022/12/30 03:07:36;;;;;;;3.77;1.53;;;8.10;99.90;;;;;;5025712;28;20445;-68
2022/12/30 03:13:10;;;;;;;2.93;1.63;;;8.00;99.90;;;;;;5020637;28;20463;-69
2022/12/30 03:15:46;;;;;;;5.60;1.47;;;7.90;99.90;;;;;;5025237;28;20466;-69
2022/12/30 03:18:13;;;;;;;5.67;2.20;;;7.90;99.90;;;;;;5025488;28;20402;-69
2022/12/30 03:20:40;;;;;;;4.53;1.50;;;7.90;99.90;;;;;;5025226;28;20891;-69
2022/12/30 03:28:41;;;;;;;2.93;1.47;;;7.80;99.90;;;;;;5025200;28;20965;-68
2022/12/30 03:31:11;;;;;;;5.43;1.83;;;7.70;99.90;;;;;;5024883;28;20434;-68
2022/12/30 03:33:38;;;;;;;6.67;1.40;;;7.70;99.90;;;;;;5024726;28;20418;-69
2022/12/30 03:36:27;;;;;;;3.43;1.67;;;7.60;99.90;;;;;;5024889;28;20517;-69
2022/12/30 03:39:07;;;;;;;4.17;1.53;;;7.60;99.90;;;;;;5017847;28;20443;-68
2022/12/30 03:41:33;;;;;;;2.90;1.90;;;7.60;99.90;;;;;;5009009;28;20913;-68
2022/12/30 03:43:59;;;;;;;3.83;1.60;;;7.60;99.90;;;;;;5025000;28;20438;-68
2022/12/30 03:46:32;;;;;;;2.50;1.63;;;7.50;99.90;;;;;;5024899;28;20817;-68
2022/12/30 03:48:57;;;;;;;3.77;2.10;;;7.60;99.90;;;;;;5025197;28;20572;-69
2022/12/30 03:51:23;;;;;;;2.33;1.47;;;7.50;99.90;;;;;;5025510;28;20510;-70
2022/12/30 03:53:49;;;;;;;2.73;1.20;;;7.50;99.90;;;;;;5027356;28;20250;-69
2022/12/30 03:56:14;;;;;;;7.50;2.23;;;7.50;99.90;;;;;;5026492;28;20223;-68
2022/12/30 03:58:40;;;;;;;16.83;2.27;;;7.40;99.90;;;;;;5026237;28;20236;-69
2022/12/30 04:01:06;;;;;;;1.83;1.20;;;7.50;99.90;;;;;;5024838;28;20582;-69
2022/12/30 04:03:31;;;;;;;3.87;1.43;;;7.50;99.90;;;;;;5024720;28;20203;-67
2022/12/30 04:05:57;;;;;;;4.33;2.10;;;7.60;99.90;;;;;;5008733;28;20720;-69
2022/12/30 04:08:23;;;;;;;4.93;1.87;;;7.60;99.90;;;;;;5026004;28;20466;-69
2022/12/30 04:10:49;;;;;;;3.40;1.43;;;7.60;99.90;;;;;;5028646;28;20258;-69
2022/12/30 04:13:16;;;;;;;1.57;1.23;;;7.70;99.90;;;;;;5028351;28;20418;-69
2022/12/30 04:15:41;;;;;;;5.90;1.43;;;7.70;99.90;;;;;;5028551;28;20435;-68
2022/12/30 04:18:07;;;;;;;4.20;1.50;;;7.70;99.90;;;;;;5028772;28;20480;-68
2022/12/30 04:20:33;;;;;;;1.73;1.43;;;7.60;99.90;;;;;;5028365;28;20280;-69
2022/12/30 04:22:59;;;;;;;5.90;1.30;;;7.60;99.90;;;;;;5028691;28;20541;-69
2022/12/30 04:25:25;;;;;;;4.57;1.57;;;7.50;99.90;;;;;;5028261;28;20181;-68
2022/12/30 04:27:51;;;;;;;10.10;1.23;;;7.50;99.90;;;;;;5028164;28;20200;-68
2022/12/30 04:30:16;;;;;;;8.37;1.67;;;7.50;99.90;;;;;;5028259;28;20418;-69
2022/12/30 04:32:42;;;;;;;3.80;1.57;;;7.40;99.90;;;;;;5028620;28;20168;-69
2022/12/30 04:35:08;;;;;;;5.57;1.70;;;7.30;99.90;;;;;;5024874;28;20722;-68
2022/12/30 04:37:33;;;;;;;1.97;1.30;;;7.30;99.90;;;;;;5028070;28;20230;-69
2022/12/30 04:39:59;;;;;;;2.23;1.67;;;7.20;99.90;;;;;;5028243;28;20418;-68
2022/12/30 04:42:25;;;;;;;5.83;1.50;;;7.20;99.90;;;;;;5028152;28;20176;-69
2022/12/30 04:44:50;;;;;;;1.50;1.10;;;7.10;99.90;;;;;;5028240;28;20726;-69
2022/12/30 04:47:16;;;;;;;3.90;1.67;;;7.00;99.90;;;;;;5027832;28;20278;-70
2022/12/30 04:49:41;;;;;;;6.87;1.77;;;7.00;99.90;;;;;;5028260;28;20195;-69
2022/12/30 04:52:07;;;;;;;3.23;1.53;;;7.00;99.90;;;;;;5029187;28;20190;-69
2022/12/30 04:54:33;;;;;;;8.37;2.00;;;7.00;99.90;;;;;;5029343;28;20189;-69
2022/12/30 04:56:58;;;;;;;3.80;1.40;;;7.00;99.90;;;;;;5028198;28;20213;-69
2022/12/30 04:59:24;;;;;;;6.20;2.23;;;7.10;99.90;;;;;;5027812;28;20574;-69
2022/12/30 05:01:50;;;;;;;2.80;1.47;;;7.00;99.90;;;;;;5028017;28;20658;-69
2022/12/30 05:04:15;;;;;;;6.93;2.53;;;6.90;99.90;;;;;;5027843;28;20184;-69
2022/12/30 05:06:41;;;;;;;6.80;1.63;;;6.90;99.90;;;;;;5027882;28;20602;-69
2022/12/30 05:09:06;;;;;;;6.40;1.67;;;6.90;99.90;;;;;;5027365;28;20614;-69
2022/12/30 05:11:32;;;;;;;3.07;1.33;;;6.80;99.90;;;;;;5027353;28;20298;-68
2022/12/30 05:13:57;;;;;;;5.93;1.70;;;6.70;99.90;;;;;;5027724;28;20172;-68
2022/12/30 05:16:23;;;;;;;6.90;2.13;;;6.70;99.90;;;;;;5027519;28;20196;-67
2022/12/30 05:18:49;;;;;;;9.50;2.07;;;6.80;99.90;;;;;;5010637;28;20215;-68
2022/12/30 05:21:14;;;;;;;9.83;1.80;;;6.60;99.90;;;;;;5026193;28;20184;-69
2022/12/30 05:26:24;;;;;;;2.63;1.30;;;6.60;99.90;;;;;;5027666;28;20210;-68
2022/12/30 05:28:50;;;;;;;1.83;1.43;;;6.50;99.90;;;;;;5026916;28;20470;-68
2022/12/30 05:31:17;;;;;;;1.70;1.57;;;6.50;99.90;;;;;;5027303;28;20554;-68
2022/12/30 05:33:43;;;;;;;7.23;1.73;;;6.50;99.90;;;;;;5023512;28;20183;-68
2022/12/30 05:36:10;;;;;;;3.20;1.40;;;6.30;99.90;;;;;;5027121;28;20887;-68
2022/12/30 05:38:36;;;;;;;3.33;1.30;;;6.30;99.90;;;;;;5026838;28;21031;-69
2022/12/30 05:41:01;;;;;;;4.93;1.50;;;6.30;99.90;;;;;;5027116;28;20421;-69
2022/12/30 05:43:27;;;;;;;2.17;1.40;;;6.30;99.90;;;;;;5027330;28;20502;-68
2022/12/30 05:45:53;;;;;;;8.63;2.03;;;6.30;99.90;;;;;;5026658;28;20196;-68
2022/12/30 05:48:18;;;;;;;8.07;1.60;;;6.30;99.90;;;;;;5026872;28;20200;-68
2022/12/30 05:50:47;;;;;;;1.97;1.27;;;6.20;99.90;;;;;;5026653;28;20725;-68
2022/12/30 05:53:13;;;;;;;1.63;1.27;;;6.20;99.90;;;;;;5026324;28;20178;-69
2022/12/30 05:55:39;;;;;;;2.93;1.50;;;6.20;99.90;;;;;;5026433;28;20457;-68
2022/12/30 05:58:04;;;;;;;4.10;1.60;;;6.10;99.90;;;;;;5026544;28;20233;-69
2022/12/30 06:00:30;;;;;;;5.53;1.67;;;6.00;99.90;;;;;;5026579;28;20180;-68
2022/12/30 06:02:56;;;;;;;2.83;1.67;;;6.00;99.90;;;;;;5026736;28;20203;-68
2022/12/30 06:05:21;;;;;;;3.63;1.30;;;6.00;99.90;;;;;;5026418;28;20180;-69
2022/12/30 06:07:47;;;;;;;5.93;1.70;;;6.00;99.90;;;;;;5026609;28;20441;-69
2022/12/30 06:10:13;;;;;;;6.57;1.97;;;5.90;99.90;;;;;;5012491;28;20531;-68
2022/12/30 06:12:39;;;;;;;5.50;1.90;;;5.90;99.90;;;;;;5027026;28;20179;-69
2022/12/30 06:15:05;;;;;;;2.03;1.13;;;5.80;99.90;;;;;;5027174;28;20487;-68
2022/12/30 06:17:31;;;;;;;6.10;2.10;;;5.80;99.90;;;;;;5026501;28;20269;-68
2022/12/30 06:19:57;;;;;;;2.80;1.57;;;5.80;99.90;;;;;;5026072;28;20455;-68
2022/12/30 06:22:22;;;;;;;1.93;1.47;;;5.80;99.90;;;;;;5026136;28;20179;-68
2022/12/30 06:24:48;;;;;;;2.30;1.60;;;5.80;99.90;;;;;;5026208;28;20172;-68
2022/12/30 06:27:13;;;;;;;8.83;1.90;;;5.80;99.90;;;;;;5025919;28;20195;-68
2022/12/30 06:29:39;;;;;;;7.27;1.77;;;5.80;99.90;;;;;;5025679;28;20799;-68
2022/12/30 06:32:05;;;;;;;3.83;1.23;;;5.70;99.90;;;;;;5025579;28;20221;-69
2022/12/30 06:34:30;;;;;;;5.60;2.17;;;5.80;99.90;;;;;;5022567;28;20633;-69
2022/12/30 06:36:56;;;;;;;4.50;1.33;;;5.70;99.90;;;;;;5025900;28;20236;-68
2022/12/30 06:39:22;;;;;;;1.43;1.13;;;5.70;99.90;;;;;;5025912;28;20563;-68
2022/12/30 06:41:47;;;;;;;3.80;1.60;;;5.60;99.90;;;;;;5025995;28;20184;-68
2022/12/30 06:44:13;;;;;;;5.63;1.53;;;5.60;99.90;;;;;;5025926;28;20183;-68
2022/12/30 06:46:38;;;;;;;5.10;1.70;;;5.50;99.90;;;;;;5025878;28;20635;-69
2022/12/30 06:49:04;;;;;;;2.10;1.70;;;5.60;99.90;;;;;;5025536;28;20297;-69
2022/12/30 06:51:29;;;;;;;6.60;1.70;;;5.50;99.90;;;;;;5025747;28;20665;-69
2022/12/30 06:53:55;;;;;;;2.90;1.70;;;5.50;99.90;;;;;;5025681;28;20288;-69
2022/12/30 06:56:21;;;;;;;7.77;1.60;;;5.40;99.90;;;;;;5025355;28;20211;-70
2022/12/30 06:58:46;;;;;;;7.20;2.30;;;5.40;99.90;;;;;;5025385;28;20321;-69
2022/12/30 07:01:12;;;;;;;4.40;1.70;;;5.40;99.90;;;;;;5030151;28;20183;-69
2022/12/30 07:03:38;;;;;;;4.47;2.27;;;5.40;99.90;;;;;;5026719;28;20421;-68
2022/12/30 07:06:05;;;;;;;4.30;2.30;;;5.40;99.90;;;;;;5025053;28;20530;-68
2022/12/30 07:08:31;;;;;;;3.50;1.67;;;5.30;99.90;;;;;;5029954;28;20507;-68
2022/12/30 07:10:57;;;;;;;5.23;1.93;;;5.30;99.90;;;;;;5025692;28;20478;-69
2022/12/30 07:13:23;;;;;;;4.33;1.80;;;5.30;99.90;;;;;;5025253;28;20520;-69
2022/12/30 07:15:49;;;;;;;1.87;1.73;;;5.30;99.90;;;;;;5025042;28;20210;-68
2022/12/30 07:18:14;;;;;;;2.77;1.60;;;5.30;99.90;;;;;;5027392;28;20268;-68
2022/12/30 07:20:40;;;;;;;6.93;4.03;;;5.30;99.90;;;;;;5024850;28;20238;-66
2022/12/30 07:23:06;;;;;;;2.67;1.67;;;5.30;99.90;;;;;;5025906;28;20192;-67
2022/12/30 07:25:31;;;;;;;6.00;1.97;;;5.30;99.90;;;;;;5024927;28;20183;-69
2022/12/30 07:27:59;;;;;;;3.00;1.70;;;5.30;99.90;;;;;;5025353;28;21083;-69
2022/12/30 07:30:25;;;;;;;5.40;1.57;;;5.30;99.90;;;;;;5025216;28;20176;-69
2022/12/30 07:32:51;;;;;;;5.40;2.13;;;5.20;99.90;;;;;;5025320;28;20912;-69
2022/12/30 07:35:17;;;;;;;3.07;1.60;;;5.20;99.90;;;;;;5026241;28;20529;-69
2022/12/30 07:37:42;;;;;;;6.93;1.73;;;5.30;99.90;;;;;;5024748;28;20194;-69
2022/12/30 07:40:09;;;;;;;2.33;1.80;;;5.20;99.90;;;;;;5025170;28;20904;-69
2022/12/30 07:42:35;;;;;;;2.47;1.70;;;5.20;99.90;;;;;;5024669;28;20175;-68
2022/12/30 07:45:00;;;;;;;3.00;1.57;;;5.20;99.90;;;;;;5025150;28;20419;-68
2022/12/30 07:47:29;;;;;;;4.80;1.37;;;5.30;99.90;;;;;;5024579;28;20235;-68
2022/12/30 07:49:55;;;;;;;8.50;2.73;;;5.30;99.90;;;;;;5024810;28;20480;-69
2022/12/30 07:52:21;;;;;;;4.37;2.27;;;5.30;99.90;;;;;;5024850;28;20912;-69
2022/12/30 07:54:46;;;;;;;6.20;2.03;;;5.20;99.90;;;;;;5025034;28;20186;-69
2022/12/30 07:57:12;;;;;;;2.50;1.67;;;5.30;99.90;;;;;;5024811;28;20454;-68
2022/12/30 07:59:37;;;;;;;5.30;1.97;;;5.30;99.90;;;;;;5024731;28;20646;-69
2022/12/30 08:02:03;;;;;;;2.27;1.57;;;5.20;99.90;;;;;;5024938;28;20242;-69
2022/12/30 08:04:28;;;;;;;8.30;2.90;;;5.30;99.90;;;;;;5024574;28;20675;-69
2022/12/30 08:06:54;;;;;;;6.30;2.83;;;5.30;99.90;;;;;;5024816;28;20203;-68
2022/12/30 08:09:19;;;;;;;2.07;1.63;;;5.30;99.90;;;;;;5025588;28;20206;-69
2022/12/30 08:11:45;;;;;;;3.07;1.60;;;5.40;99.90;;;;;;5024877;28;20732;-68
2022/12/30 08:14:11;;;;;;;7.80;2.20;;;5.40;99.90;;;;;;5024899;28;20195;-69
2022/12/30 08:16:36;;;;;;;4.83;2.00;;;5.40;99.90;;;;;;5024642;28;20240;-69
2022/12/30 08:19:02;;;;;;;8.73;2.30;;;5.50;99.90;;;;;;5024989;28;20179;-69
2022/12/30 08:21:27;;;;;;;2.67;2.10;;;5.40;99.90;;;;;;5025096;28;20266;-70
2022/12/30 08:23:54;;;;;;;4.40;1.60;;;5.50;99.90;;;;;;5009075;28;20186;-68
2022/12/30 08:26:23;;;;;;;5.63;1.93;;;5.60;99.90;;;;;;5025477;28;20199;-69
2022/12/30 08:28:50;;;;;;;7.33;2.97;;;5.60;99.90;;;;;;5023728;28;20559;-69
2022/12/30 08:31:18;;;;;;;2.70;1.70;;;5.70;99.90;;;;;;5026571;28;20509;-69
2022/12/30 08:33:44;;;;;;;3.87;1.90;;;5.70;99.90;;;;;;5022264;28;20492;-68
2022/12/30 08:36:12;;;;;;;7.20;2.00;;;5.90;99.90;;;;;;5024835;28;20482;-68
2022/12/30 08:38:42;;;;;;;4.00;1.80;;;6.00;99.90;;;;;;5024559;28;20179;-69
2022/12/30 08:41:19;;;;;;;2.90;1.30;;;6.30;99.90;;;;;;5019675;28;20422;-69
2022/12/30 08:43:45;;;;;;;8.97;2.20;;;6.40;99.90;;;;;;5024492;28;20463;-69
2022/12/30 08:46:11;;;;;;;6.50;2.07;;;6.50;99.90;;;;;;5024049;28;20473;-69
2022/12/30 08:48:37;;;;;;;10.67;2.80;;;6.40;99.90;;;;;;5025155;28;21041;-70
2022/12/30 08:51:03;;;;;;;13.00;2.10;;;6.40;99.90;;;;;;5025291;28;20410;-68
2022/12/30 08:53:29;;;;;;;4.70;1.73;;;6.50;99.90;;;;;;5025196;28;20453;-68
2022/12/30 08:56:00;;;;;;;5.77;2.47;;;6.60;99.90;;;;;;5028206;28;20464;-68
2022/12/30 08:58:25;;;;;;;4.87;2.73;;;6.70;99.90;;;;;;5028651;28;20509;-68
2022/12/30 09:00:51;;;;;;;2.57;1.70;;;6.80;99.90;;;;;;5011246;28;20501;-68
2022/12/30 09:03:16;;;;;;;5.03;2.27;;;6.90;99.90;;;;;;5028814;28;20179;-69
2022/12/30 09:05:42;;;;;;;6.73;2.43;;;6.80;99.90;;;;;;5028673;28;20291;-69
2022/12/30 09:08:07;;;;;;;4.07;1.53;;;6.60;99.90;;;;;;5028214;28;20265;-69
2022/12/30 09:10:33;;;;;;;1.87;1.23;;;6.60;99.90;;;;;;5028824;28;20601;-69
2022/12/30 09:12:59;;;;;;;2.40;1.33;;;6.50;99.90;;;;;;5028645;28;20175;-68
2022/12/30 09:15:24;;;;;;;6.43;2.00;;;6.50;99.90;;;;;;5032884;28;20246;-69
2022/12/30 09:17:50;;;;;;;4.43;1.97;;;6.50;99.90;;;;;;5033326;28;20225;-68
2022/12/30 09:20:15;;;;;;;6.50;1.70;;;6.50;99.90;;;;;;5019356;28;20186;-69
2022/12/30 09:22:41;;;;;;;6.73;1.87;;;6.50;99.90;;;;;;5033083;28;20229;-68
2022/12/30 09:25:07;;;;;;;5.60;2.33;;;6.50;99.90;;;;;;5033099;28;20179;-68
2022/12/30 09:27:33;;;;;;;8.60;1.87;;;6.50;99.90;;;;;;5032762;28;20191;-68
2022/12/30 09:29:59;;;;;;;5.80;2.13;;;6.60;99.90;;;;;;5032976;28;20454;-69
2022/12/30 09:32:24;;;;;;;3.13;1.57;;;6.60;99.90;;;;;;5032814;28;20257;-69
2022/12/30 09:34:50;;;;;;;7.50;2.13;;;6.60;99.90;;;;;;5033065;28;20661;-68
2022/12/30 09:37:15;;;;;;;1.87;1.50;;;6.70;99.90;;;;;;5032767;28;20249;-69
2022/12/30 09:39:41;;;;;;;6.10;1.57;;;6.70;99.90;;;;;;5032998;28;20176;-69
2022/12/30 09:45:15;;;;;;;2.60;1.50;;;6.80;99.90;;;;;;5026710;28;20248;-68
2022/12/30 09:47:57;;;;;;;3.83;1.47;;;6.80;99.90;;;;;;5032462;28;20509;-68
2022/12/30 09:50:30;;;;;;;6.50;3.30;;;6.80;99.90;;;;;;5032830;28;20426;-68
2022/12/30 09:53:06;;;;;;;4.27;1.67;;;6.90;99.90;;;;;;5032462;28;20869;-69
2022/12/30 09:55:44;;;;;;;2.60;1.67;;;6.90;99.90;;;;;;5032587;28;20433;-69
2022/12/30 09:58:15;;;;;;;2.33;1.90;;;6.90;99.90;;;;;;5027660;28;20426;-67
2022/12/30 10:00:41;;;;;;;3.60;1.83;;;7.00;99.90;;;;;;5032628;28;20423;-68
2022/12/30 10:03:13;;;;;;;5.30;1.70;;;7.10;99.90;;;;;;5032659;28;20425;-70
2022/12/30 10:05:58;;;;;;;3.33;1.40;;;7.10;99.90;;;;;;5031660;28;20199;-69
2022/12/30 10:08:54;;;;;;;4.17;1.60;;;7.10;99.90;;;;;;5032128;28;20825;-68
2022/12/30 10:11:48;;;;;;;2.30;1.60;;;7.20;99.90;;;;;;5032373;28;20806;-69
2022/12/30 10:14:39;;;;;;;5.90;1.60;;;7.30;99.90;;;;;;5032258;28;20417;-66
2022/12/30 10:17:27;;;;;;;3.03;1.27;;;7.30;99.90;;;;;;5030265;28;20536;-68
2022/12/30 10:20:09;;;;;;;8.20;1.97;;;7.30;99.90;;;;;;5025312;28;20418;-68
2022/12/30 10:22:53;;;;;;;4.87;1.57;;;7.50;99.90;;;;;;5032247;28;20434;-69
2022/12/30 10:25:44;;;;;;;10.43;1.80;;;7.50;99.90;;;;;;5032610;28;20410;-69
2022/12/30 10:28:14;;;;;;;3.63;1.80;;;7.60;99.90;;;;;;5026891;28;20481;-68
2022/12/30 10:30:45;;;;;;;7.00;1.97;;;7.60;99.90;;;;;;5031931;28;20781;-69
2022/12/30 10:33:20;;;;;;;2.13;1.40;;;7.60;99.90;;;;;;5031613;28;20480;-68
2022/12/30 10:35:50;;;;;;;3.10;1.47;;;7.70;99.90;;;;;;5028942;28;20437;-70
2022/12/30 10:38:20;;;;;;;3.50;1.50;;;7.80;99.90;;;;;;5031175;28;20462;-67
2022/12/30 10:40:55;;;;;;;10.27;2.17;;;7.90;99.90;;;;;;5028212;28;20423;-67
2022/12/30 10:43:39;;;;;;;8.53;2.03;;;7.90;99.90;;;;;;5031098;28;20513;-68
2022/12/30 10:46:26;;;;;;;2.60;1.77;;;8.10;99.90;;;;;;5030852;28;20441;-68
2022/12/30 10:49:09;;;;;;;4.17;1.97;;;8.20;99.90;;;;;;5024682;28;20537;-67
2022/12/30 10:51:35;;;;;;;4.17;2.47;;;8.20;99.90;;;;;;5030865;28;20403;-67
2022/12/30 10:54:01;;;;;;;3.77;1.47;;;8.20;99.90;;;;;;5030949;28;20445;-67
2022/12/30 10:56:30;;;;;;;4.60;2.30;;;8.30;99.90;;;;;;5030571;28;20625;-68
2022/12/30 10:58:59;;;;;;;2.63;1.13;;;8.40;99.90;;;;;;5030750;28;20426;-68
2022/12/30 11:01:31;;;;;;;3.13;1.87;;;8.40;99.90;;;;;;5017022;28;20410;-69
2022/12/30 11:03:58;;;;;;;3.70;1.63;;;8.30;99.90;;;;;;5031529;28;20422;-69
2022/12/30 11:06:35;;;;;;;5.30;1.60;;;8.40;99.90;;;;;;5030911;28;20435;-69
2022/12/30 11:09:13;;;;;;;5.07;1.80;;;8.50;99.90;;;;;;5031882;28;20489;-68
2022/12/30 11:14:44;;;;;;;6.83;1.83;;;8.60;99.90;;;;;;5031330;28;20429;-69
2022/12/30 11:17:16;;;;;;;2.83;1.47;;;8.60;99.90;;;;;;5030855;28;20506;-69
2022/12/30 11:19:50;;;;;;;4.23;2.07;;;8.60;99.90;;;;;;5030951;28;20417;-69
2022/12/30 11:22:15;;;;;;;4.20;1.70;;;8.80;99.90;;;;;;5031456;28;20839;-69
2022/12/30 11:24:57;;;;;;;1.63;1.30;;;8.80;99.90;;;;;;5031434;28;20429;-68
2022/12/30 11:27:50;;;;;;;2.43;1.50;;;8.90;99.90;;;;;;5030789;28;20195;-68
2022/12/30 11:30:35;;;;;;;11.23;1.97;;;8.90;99.90;;;;;;5014608;28;20412;-68
2022/12/30 11:33:13;;;;;;;4.20;1.70;;;8.90;99.90;;;;;;5024937;28;20742;-68
2022/12/30 11:35:45;;;;;;;3.43;2.30;;;8.90;99.90;;;;;;5030500;28;20853;-69
2022/12/30 11:38:36;;;;;;;4.20;1.73;;;8.90;99.90;;;;;;5030757;28;20416;-67
2022/12/30 11:41:18;;;;;;;3.10;1.93;;;8.90;99.90;;;;;;5030100;28;20419;-68
2022/12/30 11:43:46;;;;;;;4.83;1.80;;;8.90;99.90;;;;;;5030637;28;20411;-68
2022/12/30 11:46:15;;;;;;;5.37;1.50;;;8.90;99.90;;;;;;5030447;28;20905;-68
2022/12/30 11:48:52;;;;;;;7.97;1.70;;;8.90;99.90;;;;;;5030536;28;20462;-67
2022/12/30 11:51:26;;;;;;;3.43;1.63;;;8.90;99.90;;;;;;5030893;28;20846;-67
2022/12/30 11:54:30;;;;;;;5.73;2.73;;;9.00;99.90;;;;;;5023389;28;20442;-68
2022/12/30 11:56:57;;;;;;;5.23;1.73;;;9.00;99.90;;;;;;5002144;28;20526;-67
2022/12/30 11:59:31;;;;;;;5.73;1.97;;;9.10;99.90;;;;;;5030070;28;20417;-67
2022/12/30 12:02:00;;;;;;;6.20;1.53;;;9.10;99.90;;;;;;5030373;28;20431;-67
2022/12/30 12:04:36;;;;;;;7.50;3.47;;;9.20;99.90;;;;;;5029693;28;20443;-67
2022/12/30 12:07:04;;;;;;;4.00;2.50;;;9.30;99.90;;;;;;5030003;28;20445;-67
2022/12/30 12:09:40;;;;;;;4.47;1.47;;;9.20;99.90;;;;;;5028292;28;20461;-68
2022/12/30 12:12:11;;;;;;;8.43;2.80;;;9.10;99.90;;;;;;5030223;28;20420;-68
2022/12/30 12:15:01;;;;;;;6.20;2.30;;;9.10;99.90;;;;;;5030334;28;20418;-68
2022/12/30 12:17:46;;;;;;;7.23;2.27;;;9.10;99.90;;;;;;5019360;28;20434;-68
2022/12/30 12:20:39;;;;;;;6.80;2.90;;;9.10;99.90;;;;;;5030912;28;20933;-68
2022/12/30 12:23:37;;;;;;;2.73;1.10;;;9.20;99.90;;;;;;5029526;28;20786;-69
2022/12/30 12:26:29;;;;;;;4.30;1.77;;;9.10;99.90;;;;;;5026012;28;20959;-68
2022/12/30 12:28:57;;;;;;;6.83;1.83;;;9.20;99.90;;;;;;5015588;28;20507;-69
2022/12/30 12:32:10;;;;;;;2.40;1.87;;;9.00;99.90;;;;;;5034484;28;20889;-69
2022/12/30 12:34:54;;;;;;;5.80;2.00;;;9.00;99.90;;;;;;5015264;28;20421;-68
2022/12/30 12:37:35;;;;;;;36.77;19.97;;;9.10;99.90;;;;;;5034150;28;20468;-67
2022/12/30 12:40:12;;;;;;;25.23;15.53;;;9.10;99.90;;;;;;5032255;28;20414;-67
2022/12/30 12:43:06;;;;;;;22.37;7.60;;;9.30;99.90;;;;;;5033896;28;20482;-67
2022/12/30 12:45:44;;;;;;;5.60;1.93;;;9.30;99.90;;;;;;5018905;28;21000;-69
2022/12/30 12:48:13;;;;;;;3.63;1.60;;;9.20;99.90;;;;;;5025061;28;20519;-68
2022/12/30 12:50:56;;;;;;;4.13;1.50;;;9.10;99.90;;;;;;5030392;28;20422;-68
2022/12/30 12:53:31;;;;;;;3.57;1.20;;;9.10;99.90;;;;;;5030209;28;20469;-68
2022/12/30 12:56:03;;;;;;;4.30;1.93;;;9.20;99.90;;;;;;5030075;28;20959;-68
2022/12/30 12:58:43;;;;;;;4.93;1.77;;;9.20;99.90;;;;;;5021324;28;20603;-68
2022/12/30 13:01:36;;;;;;;4.67;1.90;;;9.30;99.90;;;;;;5029344;28;20451;-69
2022/12/30 13:04:26;;;;;;;7.00;1.80;;;9.20;99.90;;;;;;5029774;28;20500;-69
2022/12/30 13:07:20;;;;;;;3.17;1.67;;;9.20;99.90;;;;;;5029911;28;20440;-69
2022/12/30 13:10:00;;;;;;;3.23;1.77;;;9.30;99.90;;;;;;5013770;28;20872;-68
2022/12/30 13:12:52;;;;;;;4.03;2.20;;;9.30;99.90;;;;;;5026841;28;20415;-68
2022/12/30 13:15:23;;;;;;;5.23;3.93;;;9.20;99.90;;;;;;5029738;28;20425;-68
2022/12/30 13:17:51;;;;;;;7.23;2.17;;;9.10;99.90;;;;;;5027833;28;20460;-68
2022/12/30 13:20:22;;;;;;;5.50;1.30;;;9.10;99.90;;;;;;5029671;28;21376;-68
2022/12/30 13:22:49;;;;;;;5.40;2.00;;;9.10;99.90;;;;;;5027449;28;20526;-68
2022/12/30 13:25:24;;;;;;;11.93;1.77;;;9.10;99.90;;;;;;5029723;28;20412;-68
2022/12/30 13:27:53;;;;;;;3.60;1.40;;;9.10;99.90;;;;;;5026830;28;20403;-67
2022/12/30 13:30:21;;;;;;;4.50;2.30;;;9.10;99.90;;;;;;5011383;28;20443;-67
2022/12/30 13:32:56;;;;;;;3.43;1.63;;;9.10;99.90;;;;;;5029421;28;20411;-67
2022/12/30 13:35:29;;;;;;;3.80;1.90;;;9.10;99.90;;;;;;5028972;28;20507;-68
2022/12/30 13:38:21;;;;;;;4.80;1.87;;;9.00;99.90;;;;;;5025302;28;20408;-67
2022/12/30 13:41:14;;;;;;;9.40;3.83;;;9.00;99.90;;;;;;5022185;28;20424;-67
2022/12/30 13:43:42;;;;;;;10.63;1.60;;;9.00;99.90;;;;;;5014236;28;20409;-68
2022/12/30 13:46:29;;;;;;;2.33;1.20;;;9.00;99.90;;;;;;5029271;28;20472;-69
2022/12/30 13:49:04;;;;;;;10.17;2.30;;;9.00;99.90;;;;;;5021762;28;20499;-68
2022/12/30 13:51:30;;;;;;;4.60;1.93;;;9.00;99.90;;;;;;5029020;28;20409;-68
2022/12/30 13:54:01;;;;;;;3.53;1.93;;;9.00;99.90;;;;;;5029088;28;20432;-67
2022/12/30 13:56:36;;;;;;;5.10;1.90;;;9.00;99.90;;;;;;5028653;28;20475;-68
2022/12/30 13:59:02;;;;;;;3.30;1.67;;;8.90;99.90;;;;;;5028695;28;20933;-67
2022/12/30 14:01:29;;;;;;;3.57;1.80;;;8.90;99.90;;;;;;5028832;28;20507;-66
2022/12/30 14:04:10;;;;;;;2.33;1.77;;;9.00;99.90;;;;;;5021384;28;20431;-67
2022/12/30 14:06:43;;;;;;;6.13;1.43;;;8.90;99.90;;;;;;5028466;28;20947;-68
2022/12/30 14:09:21;;;;;;;5.70;2.10;;;8.80;99.90;;;;;;5028463;28;20570;-68
2022/12/30 14:12:04;;;;;;;7.23;2.20;;;8.80;99.90;;;;;;5028699;28;20416;-68
2022/12/30 14:14:38;;;;;;;6.87;1.90;;;8.70;99.90;;;;;;5028923;28;20411;-67